アルジェ の空港の天気 - METARとTAF

ウアリ・ブーメディアン空港 ( DAAG / ALG ) - アルジェリア アルジェ
飛行場実況気象(Metar)
観測時間01/19 12:00 CET (01/19 11:00 UTC)
風向・風速西 4m/s
視程8000m
天気現象弱い雨
少しの雲 雲底高度 610m
全天の4割程度の雲 雲底高度 1220m
全天の8割程度の雲 雲底高度 2620m
気温11℃
湿度87%
気圧1018hPa
METARDAAG 191100Z 27008KT 240V300 8000 -RA FEW020 SCT040 BKN086 11/09 Q1018
過去の天気等 Google飛行場航空写真 Wunderground天気予報

過去48時間のMETAR

飛行場予報(TAF)
発表時間: 1/19 06:00 CET (1/19 05:00 UTC)
予報対象時間: 19日7時 CET ~ 20日7時 CET
風向・風速南西 4m/s
視程8000m
少しの雲 雲底高度 610m
全天の4割程度の雲 雲底高度 1400m
全天の8割程度の雲 雲底高度 2440m
19日7時 CET ~ 19日17時 CET に一時的に
少しの塔状積雲 雲底高度 700m
少しの積乱雲 雲底高度 790m
19日7時 CET ~ 19日15時 CET に 確率 40% で一時的に
視程5000m
天気現象弱い雨
少しの積乱雲 雲底高度 790m
19日11時 CET ~ 19日14時 CET に徐々に
風向・風速西北西 6m/s
19日19時 CET ~ 19日22時 CET に徐々に
風向・風速不定 1m/s
TAF DAAG 190500Z 1906/2006 22008KT 8000 FEW020 SCT046 BKN080
TEMPO 1906/1916 FEW023TCU FEW026CB
PROB40 TEMPO 1906/1914 5000 -RA FEW026CB
BECMG 1910/1913 30012KT
BECMG 1918/1921 VRB02KT